Sierra Nevada Aquatic Research Lab (SNARL) Reserve, California Weather observations

Data are for 10 minute period ending at time listed.
 Day   Time   Solar   Ave.   Ave.  Ave.  Vector  Max.   Baro.   Total    
  of    of     Rad.   Air    Rel.  Wind   Wind   Wind  Press.  Precip.   
Year   Day            Temp.  Hum.  Speed  Dir.   Gust                    
2018   (PST)  Kw/m2    F      %     mph   deg.    mph    mb.     in.     
-------------------------------------------------------------------------
  52   10:50   0.23   23.9    41    3.7   346     7.1   780.4    0.00 
  52   11:00   0.22   23.8    41    4.9   328     7.7   780.4    0.00 
  52   11:10   0.23   23.9    41    2.5   303     6.7   780.5    0.00 
  52   11:20   0.20   23.9    41    2.9   318     7.7   780.5    0.00 
  52   11:30   0.30   24.2    40    2.7   114     5.0   780.4    0.00 
  52   11:40   0.54   25.3    38    2.3   142     5.0   780.3    0.00 
  52   11:50   0.99   27.4    36    2.9    36     7.2   780.3    0.00 
  52   12:00   0.49   27.6    34    3.5   356     6.9   780.2    0.00 
  52   12:10   0.33   26.5    34    2.0    35     4.3   780.2    0.00 
  52   12:20   0.28   26.9    34    2.2    36     7.0   780.0    0.00 
  52   12:30   0.37   26.4    35    4.2   304     8.5   779.9    0.00 
  52   12:40   0.89   29.0    33    3.6   296     7.3   779.9    0.00 
  52   12:50   0.80   30.3    30    3.7    58     7.3   779.9    0.00 
  52   13:00   0.85   31.3    29    4.4    83     9.1   779.9    0.00 
  52   13:10   0.66   30.6    29    3.9     9     8.5   779.8    0.00 
  52   13:20   0.44   29.4    30    3.6   333     7.1   779.7    0.00 
  52   13:30   0.86   30.8    29    5.2   359    11.3   779.7    0.00 
  52   13:40   0.80   31.0    29    4.4    34     9.0   779.6    0.00 
  52   13:50   0.69   32.1    28    3.2   264     9.1   779.5    0.00 
  52   14:00   0.68   31.0    28    2.7   238     7.3   779.4    0.00 
  52   14:10   0.66   32.0    26    3.3   209     5.7   779.3    0.00 
  52   14:20   0.66   32.5    25    4.5   248     8.8   779.2    0.00 
  52   14:30   0.68   32.0    26    4.4   254     8.9   779.2    0.00 
  52   14:40   0.42   31.7    25    4.3   227     8.5   779.3    0.00 
  52   14:50   0.20   30.7    26    3.3   238     9.4   779.3    0.00 
  52   15:00   0.15   29.8    28    1.0   113     4.2   779.4    0.00 
  52   15:10   0.14   29.7    28    2.8    56     7.4   779.4    0.00 
  52   15:20   0.12   28.8    29    3.3    59     6.3   779.5    0.00 
  52   15:30   0.11   28.6    30    1.5   342     4.4   779.6    0.00 
  52   15:40   0.12   28.6    30    1.5    67     6.1   779.5    0.00 
  52   15:50   0.13   28.7    32    1.4   191     3.9   779.4    0.00 
  52   16:00   0.09   28.5    35    2.3   302     4.7   779.4    0.00 
  52   16:10   0.07   27.8    37    3.3   310     7.9   779.3    0.00 
  52   16:20   0.07   27.4    39    3.6   311     8.0   779.3    0.00 
  52   16:30   0.07   27.3    42    4.8   331    11.0   779.5    0.00 
  52   16:40   0.10   27.0    45    6.4   297    11.3   779.6    0.00 
  52   16:50   0.09   26.9    44    7.9   279    14.8   779.7    0.00 
  52   17:00   0.08   26.6    44    7.5   283    12.3   779.7    0.00 
  52   17:10   0.05   26.4    44    5.7   283     9.3   779.7    0.00 
  52   17:20   0.03   25.9    45    3.7   279     6.9   779.7    0.00 
  52   17:30   0.01   25.2    45    3.9   293     6.7   779.7    0.00 
  52   17:40   0.00   24.0    50    5.7   289     9.1   779.8    0.00 
  52   17:50   0.00   23.1    52    4.9   289     8.0   779.8    0.00 
  52   18:00   0.00   22.5    53    4.4   270     9.3   779.8    0.00 
  52   18:10   0.00   21.6    54    2.5   305     4.5   779.7    0.00 
  52   18:20   0.00   21.1    55    2.4   304     4.1   779.8    0.00 
  52   18:30   0.00   18.5    54    2.6   151     4.4   779.8    0.00 
  52   18:40   0.00   16.4    56    0.7    80     2.0   779.8    0.00 
  52   18:50   0.00   15.0    57    0.4   224     2.6   779.8    0.00 
  52   19:00   0.00   15.5    57    2.0   302     3.7   779.9    0.00 
  52   19:10   0.00   13.4    59    2.9   125     4.5   780.0    0.00 
  52   19:20   0.00   13.8    64    1.2    98     2.5   779.9    0.00 
  52   19:30   0.00   13.0    64    0.7    97     2.8   779.9    0.00 
  52   19:40   0.00   12.5    65    1.6   224     4.5   779.8    0.00 
  52   19:50   0.00   12.5    64    0.7   215     2.9   779.8    0.00 
  52   20:00   0.00   12.1    66    1.1   139     2.1   779.6    0.00 
  52   20:10   0.00   13.4    66    2.3   271     4.6   779.5    0.00 
  52   20:20   0.00   13.2    65    1.0   205     3.0   779.5    0.00 
  52   20:30   0.00   12.0    65    2.2   260     4.2   779.6    0.00 
  52   20:40   0.00   10.6    68    2.8   268     5.0   779.8    0.00 
  52   20:50   0.00   10.1    70    4.1   233     5.0   779.9    0.00 
  52   21:00   0.00    9.5    71    3.7   214     5.7   779.8    0.00 
  52   21:10   0.00    9.4    75    4.5   200     5.6   779.7    0.00 
  52   21:20   0.00    9.5    77    2.5   205     4.7   779.6    0.00 
  52   21:30   0.00    9.8    76    2.7   232     3.7   779.7    0.00 
  52   21:40   0.00    9.5    74    2.0   226     3.6   779.7    0.00 
  52   21:50   0.00   10.0    75    3.8   234     4.7   779.7    0.00 
  52   22:00   0.00   11.1    73    2.7   222     4.8   779.8    0.00 
  52   22:10   0.00   11.1    74    1.4   194     3.1   779.7    0.00 
  52   22:20   0.00   10.5    76    1.1   240     3.4   779.7    0.00 
  52   22:30   0.00    9.5    74    1.6   233     3.7   780.0    0.00 
  52   22:40   0.00    7.7    76    1.5   180     3.4   780.0    0.00 
  52   22:50   0.00    7.1    79    1.3   172     2.9   779.9    0.00 
  52   23:00   0.00    8.0    80    2.0   172     6.2   779.8    0.00 
  52   23:10   0.00    8.6    78    2.2   190     5.4   779.8    0.00 
  52   23:20   0.00    9.1    78    1.0   147     3.4   779.7    0.00 
  52   23:30   0.00    7.9    78    2.0   270     6.4   779.8    0.00 
  52   23:40   0.00    7.0    81    0.5   126     2.1   779.7    0.00 
  52   23:50   0.00    5.7    81    1.5   225     4.2   779.7    0.00 
  53    0:00   0.00    5.3    83    3.7   235     5.7   779.7    0.00 
  53    0:10   0.00    5.9    84    1.6   281     4.4   779.8    0.00 
  53    0:20   0.00    6.1    83    1.1   231     3.6   779.7    0.00 
  53    0:30   0.00    5.7    85    1.6   243     4.5   779.6    0.00 
  53    0:40   0.00    7.0    83    2.4   274     4.0   779.7    0.00 
  53    0:50   0.00    6.4    83    1.3   304     2.7   779.7    0.00 
  53    1:00   0.00    5.6    84    1.0   280     2.5   779.6    0.00 
  53    1:10   0.00    4.1    81    1.1   208     2.8   779.5    0.00 
  53    1:20   0.00    3.9    86    1.7   225     3.5   779.5    0.00 
  53    1:30   0.00    4.8    87    1.5   143     2.9   779.5    0.00 
  53    1:40   0.00    7.3    86    2.7    49     5.2   779.5    0.00 
  53    1:50   0.00    8.5    84    4.2   357     7.9   779.4    0.00 
  53    2:00   0.00    9.9    80    2.7   169     6.9   779.4    0.00 
  53    2:10   0.00    8.5    81    2.6   305     5.3   779.3    0.00 
  53    2:20   0.00    6.5    81    2.3   310     4.4   779.1    0.00 
  53    2:30   0.00    5.5    84    1.8   236     6.5   779.0    0.00 
  53    2:40   0.00    4.6    85    2.9   247     6.8   779.0    0.00 
  53    2:50   0.00    5.2    88    1.5   170     4.5   778.8    0.00 
  53    3:00   0.00    6.8    87    1.2   230     3.1   778.8    0.00 
  53    3:10   0.00    7.8    84    1.1     5     3.7   778.6    0.00 
  53    3:20   0.00    7.8    81    4.0   324     7.6   778.6    0.00 
  53    3:30   0.00    6.3    83    2.3   267     5.8   778.5    0.00 
  53    3:40   0.00    5.8    84    1.3   240     7.2   778.6    0.00 
  53    3:50   0.00    6.6    84    2.8   285     6.7   778.5    0.00 
  53    4:00   0.00    7.1    84    3.7   317     9.8   778.5    0.00 
  53    4:10   0.00    8.8    83    3.1   250     8.5   778.4    0.00 
  53    4:20   0.00   10.1    81    1.5   266     3.3   778.3    0.00 
  53    4:30   0.00   11.0    79    3.8    20     8.3   778.0    0.00 
  53    4:40   0.00   11.7    77    4.9   352    12.2   777.9    0.00 
  53    4:50   0.00   12.2    76    3.5   146    10.2   777.9    0.00 
  53    5:00   0.00   13.4    74    5.8    50     8.7   777.8    0.00 
  53    5:10   0.00   12.8    75    4.8    81    11.2   777.7    0.00 
  53    5:20   0.00   13.4    74    3.9    56    10.8   777.4    0.00 
  53    5:30   0.00   13.3    75    3.6    39     8.1   777.5    0.00 
  53    5:40   0.00   12.4    76    3.1   103     7.2   777.4    0.00 
  53    5:50   0.00   12.6    76    4.7    56     8.8   777.4    0.00 
  53    6:00   0.00   12.8    73    6.1    32    10.2   777.5    0.00 
  53    6:10   0.00   14.1    70    4.3    59     9.5   777.6    0.00 
  53    6:20   0.00   14.7    64    7.0   283    18.6   777.4    0.00 
  53    6:30   0.00   17.7    48   12.0   220    25.1   777.2    0.00 
  53    6:40   0.00   21.6    34   16.0   218    27.2   777.0    0.00 
  53    6:50   0.00   22.2    32   15.1   221    31.6   777.1    0.00 
  53    7:00   0.01   22.1    32   13.7   222    23.6   777.2    0.00 
  53    7:10   0.01   21.8    33   17.3   229    26.5   777.2    0.00 
  53    7:20   0.07   22.5    33   12.9   230    21.2   777.5    0.00 
  53    7:30   0.12   23.4    32   10.0   247    20.2   777.6    0.00 
  53    7:40   0.10   23.4    36    8.8   210    24.3   777.9    0.00 
  53    7:50   0.19   24.0    33   14.4   220    26.4   778.0    0.00 
  53    8:00   0.22   25.1    33   11.7   228    19.9   778.1    0.00 
  53    8:10   0.26   25.8    32   13.8   236    26.0   778.2    0.00 
  53    8:20   0.30   26.2    32   11.6   228    23.2   778.3    0.00 
  53    8:30   0.34   26.3    31   12.8   222    24.9   778.3    0.00 
  53    8:40   0.36   26.2    32   17.6   204    26.2   778.2    0.00 
  53    8:50   0.40   26.4    32   16.6   211    26.0   778.3    0.00 
  53    9:00   0.41   27.0    31   14.5   203    25.9   778.1    0.00 
  53    9:10   0.27   25.7    34   15.2   198    24.8   777.9    0.00 
  53    9:20   0.20   24.6    38   12.9   207    21.3   777.8    0.00 
  53    9:30   0.32   25.0    38   12.9   200    21.1   777.6    0.00 
  53    9:40   0.44   26.0    35   18.1   204    26.3   777.7    0.00 
  53    9:50   0.55   27.3    33   11.8   203    24.7   777.8    0.00 
  53   10:00   0.59   28.0    32   14.6   204    33.5   778.0    0.00 
  53   10:10   0.61   29.1    30    6.7   241    22.3   778.1    0.00 
  53   10:20   0.33   26.7    34   12.0   214    27.5   778.1    0.00 
  53   10:30   0.39   27.0    35   14.4   216    37.9   778.1    0.00 
  53   10:40   0.55   25.4    38   20.4   215    37.1   778.1    0.00 

Return to SNARL Reserve graphs page.


Western Regional Climate Center,wrcc@dri.edu